CMB839 Details

Departure: Yokota AFB (RJTY)
Arrival: Elmendorf Air Force Base (PAED)
Route: DAIGO Y889 OATIS OTR3 PUTER A590 HAMND SPAIR GRUUB1
Notes: USTRANSCOM CONTRACT FLIGHT


Current Weather Information
RJTY 251156Z AUTO 21006KT 10SM CLR 21/16 A3009 RMK AO2 SLP188 T02080158 10293 20207 52013 FZRANO $
PAED 251156Z AUTO 00000KT 10SM CLR 08/03 A3012 RMK AO2 SLP195 T00800031 10125 20080 57010